Time;durP1;ratioP1;P1;durP2;ratioP2;P2;SDS_P1;SDS_P2;PMS_P1;PMS_P2;Temp;Humidity;BMP_temperature;BMP_pressure;BME280_temperature;BME280_humidity;BME280_pressure;Samples;Min_cycle;Max_cycle;Signal;HPM_P1;HPM_P2
2022/12/20 00:01:24;;;;;;;0.13;0.10;;;9.50;99.90;;;;;;5077557;28;20044;-91
2022/12/20 00:03:52;;;;;;;1.77;1.08;;;9.80;99.90;;;;;;5080958;28;20398;-92
2022/12/20 00:06:18;;;;;;;0.70;0.70;;;10.00;99.90;;;;;;5079501;28;20036;-92
2022/12/20 00:08:46;;;;;;;1.00;0.43;;;9.30;99.90;;;;;;5061554;28;20108;-90
2022/12/20 00:11:12;;;;;;;0.82;0.65;;;10.00;99.90;;;;;;5096096;28;20043;-92
2022/12/20 00:13:38;;;;;;;1.45;0.85;;;8.80;99.90;;;;;;5096000;28;20097;-92
2022/12/20 00:16:08;;;;;;;0.05;0.05;;;9.90;99.90;;;;;;5095422;28;20440;-91
2022/12/20 00:18:35;;;;;;;0.88;0.52;;;8.90;99.90;;;;;;5077223;28;20044;-91
2022/12/20 00:21:03;;;;;;;1.40;1.02;;;10.00;99.90;;;;;;5095804;28;20048;-92
2022/12/20 00:23:28;;;;;;;0.10;0.10;;;9.10;99.90;;;;;;5061128;28;20102;-91
2022/12/20 00:26:10;;;;;;;0.10;0.10;;;9.10;99.90;;;;;;5061846;28;20048;-91
2022/12/20 00:28:37;;;;;;;0.30;0.22;;;8.30;99.90;;;;;;5078286;28;20044;-91
2022/12/20 00:31:04;;;;;;;0.15;0.15;;;10.30;99.90;;;;;;5060306;28;20140;-91
2022/12/20 00:33:31;;;;;;;0.30;0.30;;;9.10;99.90;;;;;;5076596;28;20177;-92
2022/12/20 00:35:57;;;;;;;0.50;0.47;;;9.10;99.90;;;;;;5095084;28;20051;-91
2022/12/20 00:38:24;;;;;;;0.43;0.43;;;9.10;99.90;;;;;;5076932;28;20112;-91
2022/12/20 00:41:14;;;;;;;0.05;0.05;;;9.10;99.90;;;;;;5075880;28;20097;-91
2022/12/20 00:43:41;;;;;;;0.65;0.35;;;9.80;99.90;;;;;;5049937;28;20056;-92
2022/12/20 00:46:09;;;;;;;0.40;0.40;;;10.00;99.90;;;;;;5094438;28;20090;-91
2022/12/20 00:48:36;;;;;;;0.40;0.32;;;9.30;99.90;;;;;;5076261;28;20052;-91
2022/12/20 00:51:05;;;;;;;0.20;0.20;;;9.60;99.90;;;;;;5094281;28;20032;-91
2022/12/20 00:53:31;;;;;;;0.00;0.00;;;8.40;99.90;;;;;;5076323;28;20056;-91
2022/12/20 00:55:58;;;;;;;6.32;2.97;;;9.50;99.90;;;;;;5059445;28;20052;-91
2022/12/20 00:58:27;;;;;;;0.00;0.00;;;9.20;99.90;;;;;;5075354;28;20096;-91
2022/12/20 01:00:56;;;;;;;0.00;0.00;;;9.80;99.90;;;;;;5094024;28;20492;-91
2022/12/20 01:03:22;;;;;;;0.00;0.00;;;10.20;99.90;;;;;;5074997;28;20051;-91
2022/12/20 01:05:55;;;;;;;1.75;1.10;;;9.30;99.90;;;;;;5073669;28;20131;-91
2022/12/20 01:08:23;;;;;;;0.30;0.20;;;9.30;99.90;;;;;;5058300;28;20056;-91
2022/12/20 01:11:03;;;;;;;0.10;0.10;;;10.30;99.90;;;;;;5093545;28;20040;-91
2022/12/20 01:13:30;;;;;;;0.73;0.47;;;9.30;99.90;;;;;;5076982;28;20085;-90
2022/12/20 01:15:56;;;;;;;0.00;0.00;;;10.10;99.90;;;;;;5059564;28;20048;-90
2022/12/20 01:18:22;;;;;;;0.03;0.03;;;10.40;99.90;;;;;;5059480;28;20401;-91
2022/12/20 01:21:00;;;;;;;0.30;0.28;;;9.40;99.90;;;;;;5060521;28;20048;-91
2022/12/20 01:23:27;;;;;;;0.10;0.10;;;9.20;99.90;;;;;;5075875;28;20054;-91
2022/12/20 01:25:52;;;;;;;0.00;0.00;;;9.40;99.90;;;;;;5076185;28;20069;-91
2022/12/20 01:28:19;;;;;;;1.10;0.47;;;10.40;99.90;;;;;;5076506;28;20493;-91
2022/12/20 01:30:47;;;;;;;0.10;0.10;;;10.30;57.40;;;;;;5060327;28;20044;-91
2022/12/20 01:33:13;;;;;;;0.25;0.08;;;10.50;65.40;;;;;;5075895;28;20094;-91
2022/12/20 01:35:39;;;;;;;0.10;0.10;;;10.10;91.80;;;;;;5074520;28;20101;-91
2022/12/20 01:38:04;;;;;;;0.10;0.00;;;9.40;99.90;;;;;;5057321;28;20095;-91
2022/12/20 01:40:30;;;;;;;0.25;0.22;;;9.30;99.90;;;;;;5092356;28;20051;-91
2022/12/20 01:42:58;;;;;;;12.07;1.13;;;9.40;99.90;;;;;;5075446;28;20196;-91
2022/12/20 01:45:29;;;;;;;0.13;0.13;;;9.90;99.90;;;;;;5093239;28;20056;-91
2022/12/20 01:47:57;;;;;;;0.43;0.43;;;9.80;99.90;;;;;;5074618;28;20044;-91
2022/12/20 01:50:24;;;;;;;0.85;0.68;;;10.00;99.90;;;;;;5058305;28;20044;-91
2022/12/20 01:52:51;;;;;;;0.00;0.00;;;9.30;99.90;;;;;;5074669;28;20070;-90
2022/12/20 01:55:26;;;;;;;0.00;0.00;;;8.90;99.90;;;;;;5059557;28;20048;-90
2022/12/20 01:58:07;;;;;;;0.30;0.22;;;9.40;99.90;;;;;;5074979;28;20071;-90
2022/12/20 02:00:33;;;;;;;0.10;0.10;;;9.40;99.90;;;;;;5075688;28;20048;-90
2022/12/20 02:03:04;;;;;;;0.13;0.13;;;9.40;99.90;;;;;;5075000;28;20051;-90
2022/12/20 02:05:39;;;;;;;0.85;0.40;;;9.40;99.90;;;;;;5057927;28;20039;-90
2022/12/20 02:08:06;;;;;;;0.10;0.10;;;9.30;99.90;;;;;;5058104;28;20048;-91
2022/12/20 02:11:00;;;;;;;0.05;0.05;;;9.30;99.90;;;;;;5075141;28;20123;-91
2022/12/20 02:13:35;;;;;;;0.38;0.38;;;9.70;99.90;;;;;;5074670;28;20052;-91
2022/12/20 02:16:03;;;;;;;0.08;0.08;;;9.50;95.90;;;;;;5074547;28;20044;-90
2022/12/20 02:18:38;;;;;;;1.15;0.98;;;9.50;99.90;;;;;;5096005;28;20040;-90
2022/12/20 02:21:42;;;;;;;0.00;0.00;;;8.60;99.90;;;;;;5077691;28;20089;-91
2022/12/20 02:24:30;;;;;;;0.00;0.00;;;9.60;99.90;;;;;;5060258;28;20043;-90
2022/12/20 02:27:23;;;;;;;0.35;0.35;;;9.50;99.90;;;;;;5078234;28;20048;-91
2022/12/20 02:30:25;;;;;;;0.32;0.32;;;9.40;99.90;;;;;;5078316;28;20052;-92
2022/12/20 02:33:03;;;;;;;0.30;0.20;;;9.40;99.90;;;;;;5096716;28;20052;-90
2022/12/20 02:35:32;;;;;;;0.15;0.15;;;10.50;99.90;;;;;;5061395;28;20051;-91
2022/12/20 02:38:00;;;;;;;0.10;0.10;;;9.40;99.90;;;;;;5078249;28;20044;-91
2022/12/20 02:40:37;;;;;;;0.20;0.20;;;9.70;99.90;;;;;;5096424;28;20048;-90
2022/12/20 02:45:14;;;;;;;0.15;0.15;;;9.50;99.90;;;;;;5096334;28;20051;-90
2022/12/20 02:45:53;;;;;;;0.00;0.00;;;10.50;99.90;;;;;;5078204;28;20084;-90
2022/12/20 02:48:23;;;;;;;0.10;0.10;;;10.30;99.90;;;;;;5077436;28;20576;-90
2022/12/20 02:50:53;;;;;;;1.08;0.47;;;10.10;99.90;;;;;;5060886;28;20047;-91
2022/12/20 02:53:20;;;;;;;2.80;1.67;;;10.10;99.90;;;;;;5060680;28;20059;-92
2022/12/20 02:56:02;;;;;;;0.20;0.20;;;10.30;99.90;;;;;;5077421;28;20052;-91
2022/12/20 02:59:03;;;;;;;2.30;0.50;;;9.30;99.90;;;;;;5078308;28;20058;-91
2022/12/20 03:01:46;;;;;;;0.30;0.28;;;9.30;99.90;;;;;;5077588;28;20048;-92
2022/12/20 03:04:15;;;;;;;2.05;1.20;;;9.70;99.90;;;;;;5096937;28;20048;-92
2022/12/20 03:06:57;;;;;;;0.15;0.15;;;10.00;99.90;;;;;;5096653;28;20119;-92
2022/12/20 03:09:23;;;;;;;0.60;0.60;;;9.10;99.90;;;;;;5078713;28;20040;-92
2022/12/20 03:11:52;;;;;;;0.38;0.20;;;10.10;99.90;;;;;;5079172;28;20044;-92
2022/12/20 03:14:18;;;;;;;0.00;0.00;;;9.00;99.90;;;;;;5062044;28;20044;-92
2022/12/20 03:16:44;;;;;;;0.55;0.10;;;10.00;99.90;;;;;;5080687;28;20048;-93
2022/12/20 03:19:10;;;;;;;0.30;0.30;;;8.90;99.90;;;;;;5080621;28;20124;-93
2022/12/20 03:21:35;;;;;;;0.43;0.30;;;8.80;99.90;;;;;;5063044;28;20145;-93
2022/12/20 03:24:01;;;;;;;0.00;0.00;;;8.80;99.90;;;;;;5079715;28;20067;-93
2022/12/20 03:26:27;;;;;;;0.75;0.75;;;9.80;99.90;;;;;;5097412;28;20044;-93
2022/12/20 03:28:53;;;;;;;0.00;0.00;;;10.10;99.90;;;;;;5078643;28;20044;-94
2022/12/20 03:31:19;;;;;;;0.55;0.50;;;9.10;99.90;;;;;;5063124;28;20036;-94
2022/12/20 03:33:45;;;;;;;9.57;1.17;;;8.80;99.90;;;;;;5079614;28;20058;-93
2022/12/20 03:36:10;;;;;;;0.68;0.32;;;8.80;99.90;;;;;;5079101;28;20134;-93
2022/12/20 03:38:36;;;;;;;0.20;0.20;;;9.30;99.90;;;;;;5079579;28;20051;-93
2022/12/20 03:41:25;;;;;;;0.10;0.10;;;8.80;99.90;;;;;;5063213;28;20044;-93
2022/12/20 03:43:51;;;;;;;7.28;0.75;;;9.80;99.90;;;;;;5061874;28;20085;-93
2022/12/20 03:46:16;;;;;;;0.00;0.00;;;8.80;99.90;;;;;;5060671;28;20048;-93
2022/12/20 03:48:43;;;;;;;0.13;0.13;;;9.20;99.90;;;;;;5059479;28;20162;-93
2022/12/20 03:51:09;;;;;;;0.40;0.40;;;9.80;99.90;;;;;;5059832;28;20072;-93
2022/12/20 03:53:35;;;;;;;0.40;0.40;;;9.40;99.90;;;;;;5077487;28;20089;-93
2022/12/20 03:56:01;;;;;;;0.28;0.28;;;9.80;99.90;;;;;;5078369;28;20048;-93
2022/12/20 03:58:27;;;;;;;0.00;0.00;;;9.40;99.90;;;;;;5077165;28;20043;-93
2022/12/20 04:00:52;;;;;;;0.80;0.43;;;9.60;99.90;;;;;;5060699;28;20044;-93
2022/12/20 04:03:18;;;;;;;0.45;0.45;;;8.80;99.90;;;;;;5060028;28;20048;-93
2022/12/20 04:05:44;;;;;;;0.00;0.00;;;8.80;99.90;;;;;;5076467;28;20052;-93
2022/12/20 04:08:09;;;;;;;1.52;0.75;;;9.10;99.90;;;;;;5077111;28;20048;-93
2022/12/20 04:11:14;;;;;;;0.05;0.05;;;9.40;99.90;;;;;;5076724;28;20063;-93
2022/12/20 04:13:21;;;;;;;0.00;0.00;;;8.70;99.90;;;;;;5074349;28;20047;-93
2022/12/20 04:15:46;;;;;;;0.85;0.85;;;9.70;99.90;;;;;;5073691;28;20058;-91
2022/12/20 04:18:12;;;;;;;0.38;0.17;;;9.80;99.90;;;;;;5057013;28;20044;-90
2022/12/20 04:20:38;;;;;;;0.10;0.10;;;8.80;99.90;;;;;;5074355;28;20043;-93
2022/12/20 04:23:03;;;;;;;0.22;0.22;;;8.40;99.90;;;;;;5075078;28;20062;-93
2022/12/20 04:25:29;;;;;;;0.20;0.20;;;9.30;99.90;;;;;;5075461;28;20047;-93
2022/12/20 04:27:55;;;;;;;0.15;0.15;;;8.90;99.90;;;;;;5075436;28;20460;-93
2022/12/20 04:30:20;;;;;;;0.10;0.10;;;9.60;99.90;;;;;;5074375;28;20048;-93
2022/12/20 04:32:46;;;;;;;3.20;0.88;;;9.00;99.90;;;;;;5075261;28;20084;-91
2022/12/20 04:35:12;;;;;;;0.30;0.30;;;9.00;99.90;;;;;;5075323;28;20061;-93
2022/12/20 04:37:38;;;;;;;0.00;0.00;;;9.10;99.90;;;;;;5076046;28;20040;-93
2022/12/20 04:40:04;;;;;;;1.40;0.57;;;10.30;99.90;;;;;;5075704;28;20104;-93
2022/12/20 04:42:33;;;;;;;0.30;0.28;;;9.10;99.90;;;;;;5075341;28;20079;-93
2022/12/20 04:45:03;;;;;;;0.30;0.15;;;9.10;99.90;;;;;;5074106;28;20040;-93
2022/12/20 04:47:29;;;;;;;0.40;0.40;;;9.10;99.90;;;;;;5070973;28;20109;-93
2022/12/20 04:49:57;;;;;;;1.55;0.98;;;9.80;99.90;;;;;;5071101;28;20091;-92
2022/12/20 04:55:07;;;;;;;0.30;0.30;;;10.10;99.90;;;;;;5088569;28;20515;-93
2022/12/20 04:57:35;;;;;;;0.68;0.68;;;8.70;99.90;;;;;;5070523;28;20047;-93
2022/12/20 05:00:01;;;;;;;0.10;0.10;;;9.80;99.90;;;;;;5088533;28;20058;-93
2022/12/20 05:02:27;;;;;;;0.35;0.30;;;10.40;99.90;;;;;;5070787;28;20048;-93
2022/12/20 05:04:53;;;;;;;0.10;0.10;;;10.50;99.90;;;;;;5088753;28;20048;-91
2022/12/20 05:07:21;;;;;;;0.30;0.20;;;9.50;99.90;;;;;;5054056;28;20936;-90
2022/12/20 05:09:47;;;;;;;0.38;0.38;;;9.50;99.90;;;;;;5088711;28;20118;-91
2022/12/20 05:12:13;;;;;;;0.90;0.45;;;9.60;99.90;;;;;;5053778;28;20504;-91
2022/12/20 05:14:41;;;;;;;0.30;0.15;;;9.10;99.90;;;;;;5070651;28;20044;-91
2022/12/20 05:17:17;;;;;;;0.43;0.43;;;8.80;99.90;;;;;;5088796;28;20044;-91
2022/12/20 05:19:42;;;;;;;0.32;0.10;;;9.60;99.90;;;;;;5053726;28;20052;-91
2022/12/20 05:27:43;;;;;;;;;;;10.40;99.90;;;;;;5070761;28;20142;-91
2022/12/20 05:30:20;;;;;;;0.00;0.00;;;9.10;99.90;;;;;;5070379;28;19923;-91
2022/12/20 05:32:45;;;;;;;21.55;0.65;;;9.70;99.90;;;;;;5052843;28;20055;-93
2022/12/20 05:35:19;;;;;;;0.22;0.22;;;9.20;99.90;;;;;;5053298;28;20044;-93
2022/12/20 05:37:54;;;;;;;0.00;0.00;;;10.80;99.90;;;;;;5070264;28;20520;-93
2022/12/20 05:40:29;;;;;;;0.77;0.60;;;10.60;99.90;;;;;;5070481;28;20040;-93
2022/12/20 05:43:00;;;;;;;0.00;0.00;;;10.40;99.90;;;;;;5069539;28;20044;-93
2022/12/20 05:45:32;;;;;;;0.40;0.40;;;9.80;99.90;;;;;;5053671;28;20044;-92
2022/12/20 05:48:01;;;;;;;4.75;1.77;;;9.00;99.90;;;;;;5053590;28;20052;-93
2022/12/20 05:50:32;;;;;;;0.47;0.30;;;10.80;99.90;;;;;;5070805;28;20044;-93
2022/12/20 05:52:57;;;;;;;0.43;0.43;;;9.80;99.90;;;;;;5055379;28;20538;-91
2022/12/20 05:55:26;;;;;;;0.32;0.28;;;10.80;99.90;;;;;;5074382;28;20097;-91
2022/12/20 05:57:56;;;;;;;0.65;0.65;;;9.90;99.90;;;;;;5074650;28;20641;-91
2022/12/20 06:00:24;;;;;;;0.00;0.00;;;9.90;99.90;;;;;;5093488;28;20389;-91
2022/12/20 06:02:50;;;;;;;0.10;0.08;;;9.80;99.90;;;;;;5057561;28;20044;-91
2022/12/20 06:05:18;;;;;;;1.45;0.63;;;10.80;99.90;;;;;;5056534;28;20079;-91
2022/12/20 06:07:46;;;;;;;0.00;0.00;;;9.80;99.90;;;;;;5057105;28;20946;-90
2022/12/20 06:10:12;;;;;;;0.10;0.10;;;10.30;99.90;;;;;;5073402;28;20114;-89
2022/12/20 06:12:37;;;;;;;0.40;0.30;;;10.70;99.90;;;;;;5073783;28;20101;-89
2022/12/20 06:15:12;;;;;;;0.00;0.00;;;10.50;99.90;;;;;;5073862;28;20093;-90
2022/12/20 06:17:37;;;;;;;0.00;0.00;;;9.70;99.90;;;;;;5073235;28;20409;-89
2022/12/20 06:20:04;;;;;;;0.20;0.10;;;9.80;99.90;;;;;;5073426;28;20044;-89
2022/12/20 06:22:30;;;;;;;1.17;0.90;;;9.90;99.90;;;;;;5056417;28;20047;-90
2022/12/20 06:24:55;;;;;;;0.45;0.20;;;9.90;99.90;;;;;;5103158;22;20087;-80
2022/12/20 06:27:21;;;;;;;0.00;0.00;;;10.00;99.90;;;;;;5049768;28;20048;-80
2022/12/20 06:29:50;;;;;;;0.00;0.00;;;10.00;99.90;;;;;;5087856;28;20032;-80
2022/12/20 06:32:17;;;;;;;0.00;0.00;;;10.00;99.90;;;;;;5087684;28;20073;-80
2022/12/20 06:34:43;;;;;;;1.08;0.55;;;10.10;99.90;;;;;;5084393;28;20040;-80
2022/12/20 06:37:09;;;;;;;1.00;0.88;;;10.10;99.90;;;;;;5088405;28;20412;-80
2022/12/20 06:39:34;;;;;;;0.22;0.20;;;10.10;99.90;;;;;;5084875;28;20098;-78
2022/12/20 06:42:00;;;;;;;0.30;0.22;;;10.20;99.90;;;;;;5082403;28;20052;-78
2022/12/20 06:44:26;;;;;;;0.10;0.10;;;10.20;99.90;;;;;;5080199;28;20595;-78
2022/12/20 06:46:51;;;;;;;0.10;0.10;;;10.20;99.90;;;;;;5078969;28;20541;-78
2022/12/20 06:49:17;;;;;;;0.25;0.25;;;10.30;99.90;;;;;;5076270;28;20078;-78
2022/12/20 06:51:43;;;;;;;0.57;0.55;;;10.30;99.90;;;;;;5082343;28;20071;-78
2022/12/20 06:54:08;;;;;;;0.17;0.17;;;10.20;99.90;;;;;;5065386;28;20051;-79
2022/12/20 06:56:34;;;;;;;0.00;0.00;;;10.10;99.90;;;;;;5082601;28;20052;-79
2022/12/20 06:59:00;;;;;;;0.17;0.17;;;10.10;99.90;;;;;;5083639;28;20054;-79
2022/12/20 07:01:25;;;;;;;0.22;0.20;;;10.00;99.90;;;;;;5086278;28;20076;-79
2022/12/20 07:03:51;;;;;;;0.00;0.00;;;9.90;99.90;;;;;;5084150;28;20075;-79
2022/12/20 07:06:17;;;;;;;0.20;0.20;;;9.80;99.90;;;;;;5085361;28;20040;-79
2022/12/20 07:08:42;;;;;;;0.73;0.73;;;9.80;99.90;;;;;;5086221;28;20071;-79
2022/12/20 07:11:08;;;;;;;1.10;0.47;;;9.70;99.90;;;;;;5086204;28;20064;-79
2022/12/20 07:13:34;;;;;;;0.22;0.22;;;9.70;99.90;;;;;;5084820;28;20058;-79
2022/12/20 07:16:01;;;;;;;0.40;0.40;;;9.80;99.90;;;;;;5083920;28;20488;-78
2022/12/20 07:18:27;;;;;;;0.10;0.10;;;9.80;99.90;;;;;;5084204;28;20054;-78
2022/12/20 07:20:53;;;;;;;0.75;0.60;;;9.80;99.90;;;;;;5083921;28;20044;-78
2022/12/20 07:23:19;;;;;;;0.22;0.22;;;9.80;99.90;;;;;;5083920;28;20066;-78
2022/12/20 07:25:55;;;;;;;0.47;0.40;;;9.70;99.90;;;;;;5084084;28;20499;-78
2022/12/20 07:28:21;;;;;;;1.15;0.45;;;9.70;99.90;;;;;;5083840;28;20083;-78
2022/12/20 07:30:47;;;;;;;0.40;0.40;;;9.80;99.90;;;;;;5084010;28;20094;-78
2022/12/20 07:33:13;;;;;;;0.95;0.57;;;9.80;99.90;;;;;;5083911;28;20043;-78
2022/12/20 07:35:39;;;;;;;0.47;0.45;;;9.90;99.90;;;;;;5082179;28;20059;-78
2022/12/20 07:38:04;;;;;;;0.47;0.45;;;9.90;99.90;;;;;;5082310;28;20058;-78
2022/12/20 07:40:30;;;;;;;0.88;0.38;;;9.80;99.90;;;;;;5083754;28;20070;-78
2022/12/20 07:42:56;;;;;;;0.00;0.00;;;9.90;99.90;;;;;;5083249;28;20098;-78
2022/12/20 07:45:22;;;;;;;0.50;0.50;;;9.90;99.90;;;;;;5081187;28;20408;-78
2022/12/20 07:47:47;;;;;;;3.53;1.48;;;9.90;99.90;;;;;;5081952;28;20063;-78
2022/12/20 07:50:13;;;;;;;0.43;0.35;;;9.90;99.90;;;;;;5082281;28;20143;-78
2022/12/20 07:52:43;;;;;;;0.10;0.08;;;10.00;99.90;;;;;;5081405;28;20409;-78
2022/12/20 07:55:10;;;;;;;0.10;0.10;;;10.00;99.90;;;;;;5081180;28;20056;-78
2022/12/20 07:57:50;;;;;;;0.30;0.10;;;9.90;99.90;;;;;;5080752;28;20607;-78
2022/12/20 08:00:17;;;;;;;1.50;0.98;;;10.00;99.90;;;;;;5081086;28;20058;-78
2022/12/20 08:03:04;;;;;;;0.10;0.10;;;9.90;99.90;;;;;;5080879;28;20047;-78
2022/12/20 08:05:29;;;;;;;;;;;9.90;99.90;;;;;;5081328;28;20513;-78
2022/12/20 08:07:57;;;;;;;0.53;0.30;;;10.00;99.90;;;;;;5080722;28;20019;-78
2022/12/20 08:10:23;;;;;;;0.10;0.10;;;10.00;99.90;;;;;;5082780;28;20048;-78
2022/12/20 08:12:50;;;;;;;0.30;0.28;;;10.00;99.90;;;;;;5083227;28;20135;-78
2022/12/20 08:15:16;;;;;;;0.40;0.40;;;10.00;99.90;;;;;;5083108;28;20044;-79
2022/12/20 08:17:41;;;;;;;1.23;0.68;;;10.00;99.90;;;;;;5084382;28;20496;-79
2022/12/20 08:20:07;;;;;;;0.05;0.05;;;10.00;99.90;;;;;;5083936;28;20483;-79
2022/12/20 08:22:34;;;;;;;0.38;0.38;;;10.00;99.90;;;;;;5085963;28;20127;-79
2022/12/20 08:24:59;;;;;;;6.22;1.17;;;10.00;99.90;;;;;;5085985;28;20420;-79
2022/12/20 08:27:25;;;;;;;0.13;0.10;;;10.00;99.90;;;;;;5083608;28;20043;-78
2022/12/20 08:29:51;;;;;;;0.20;0.20;;;10.10;99.90;;;;;;5083496;28;20517;-78
2022/12/20 08:32:17;;;;;;;0.55;0.40;;;10.10;99.90;;;;;;5083362;28;20044;-78
2022/12/20 08:34:42;;;;;;;0.10;0.10;;;10.10;99.90;;;;;;5082992;28;20044;-78
2022/12/20 08:37:08;;;;;;;0.22;0.22;;;10.10;99.90;;;;;;5082827;28;20502;-79
2022/12/20 08:39:34;;;;;;;0.35;0.30;;;10.10;99.90;;;;;;5064433;28;20044;-79
2022/12/20 08:41:59;;;;;;;0.00;0.00;;;10.10;99.90;;;;;;5064689;28;20059;-78
2022/12/20 08:44:25;;;;;;;1.23;0.70;;;10.10;99.90;;;;;;5083399;28;20036;-79
2022/12/20 08:46:52;;;;;;;0.08;0.08;;;10.10;99.90;;;;;;5082903;28;20378;-79
2022/12/20 08:49:18;;;;;;;0.08;0.03;;;10.00;99.90;;;;;;5082738;28;20051;-78
2022/12/20 08:51:44;;;;;;;0.00;0.00;;;10.00;99.90;;;;;;5082639;28;20063;-79
2022/12/20 08:54:10;;;;;;;0.00;0.00;;;10.10;99.90;;;;;;5082754;28;20080;-79
2022/12/20 08:56:35;;;;;;;0.38;0.20;;;10.10;99.90;;;;;;5083904;28;20511;-79
2022/12/20 08:59:01;;;;;;;0.47;0.45;;;10.20;99.90;;;;;;5083380;28;20049;-78
2022/12/20 09:01:29;;;;;;;0.00;0.00;;;10.20;99.90;;;;;;5083981;28;20044;-78
2022/12/20 09:03:54;;;;;;;0.00;0.00;;;10.20;99.90;;;;;;5084263;28;20127;-78
2022/12/20 09:06:21;;;;;;;0.20;0.20;;;10.30;99.90;;;;;;5084451;28;20115;-78
2022/12/20 09:08:47;;;;;;;0.52;0.52;;;10.30;99.90;;;;;;5084236;28;20040;-78
2022/12/20 09:11:16;;;;;;;0.68;0.65;;;10.30;99.90;;;;;;5084435;28;20405;-78
2022/12/20 09:13:43;;;;;;;0.40;0.40;;;10.30;99.90;;;;;;5083885;28;20405;-79
2022/12/20 09:16:11;;;;;;;0.00;0.00;;;10.30;99.90;;;;;;5084046;28;20048;-79
2022/12/20 09:18:37;;;;;;;0.22;0.10;;;10.30;99.90;;;;;;5084671;28;20044;-78
2022/12/20 09:21:05;;;;;;;0.20;0.20;;;10.30;99.90;;;;;;5084185;28;20036;-78
2022/12/20 09:23:32;;;;;;;0.45;0.43;;;10.30;99.90;;;;;;5084253;28;20070;-79
2022/12/20 09:26:03;;;;;;;0.10;0.10;;;10.30;99.90;;;;;;5084029;28;20040;-78
2022/12/20 09:28:29;;;;;;;0.43;0.28;;;10.40;99.90;;;;;;5083546;28;20051;-78
2022/12/20 09:30:59;;;;;;;0.30;0.30;;;10.50;99.90;;;;;;5084508;28;20606;-79
2022/12/20 09:33:26;;;;;;;0.00;0.00;;;10.50;99.90;;;;;;5085254;28;20049;-79
2022/12/20 09:35:51;;;;;;;0.15;0.15;;;10.60;99.90;;;;;;5085349;28;20055;-78
2022/12/20 09:38:17;;;;;;;0.17;0.17;;;10.60;99.90;;;;;;5085023;28;20451;-78
2022/12/20 09:40:49;;;;;;;0.10;0.10;;;10.60;99.90;;;;;;5067210;28;20054;-79
2022/12/20 09:43:17;;;;;;;0.08;0.08;;;10.70;99.90;;;;;;5085932;28;20085;-79
2022/12/20 09:45:46;;;;;;;2.55;0.43;;;10.70;99.90;;;;;;5085321;28;20115;-79
2022/12/20 09:48:24;;;;;;;0.00;0.00;;;10.70;99.90;;;;;;5083362;28;20052;-79
2022/12/20 09:51:20;;;;;;;0.00;0.00;;;10.60;99.90;;;;;;5067247;28;20050;-79
2022/12/20 09:54:04;;;;;;;1.15;0.38;;;10.70;99.90;;;;;;5067425;28;20540;-79
2022/12/20 09:56:36;;;;;;;0.13;0.05;;;10.70;99.90;;;;;;5065082;28;20524;-79
2022/12/20 09:59:18;;;;;;;0.17;0.13;;;10.80;99.90;;;;;;5065493;28;20396;-79
2022/12/20 10:01:46;;;;;;;0.77;0.47;;;10.70;99.90;;;;;;5064523;28;20505;-79
2022/12/20 10:04:27;;;;;;;0.35;0.22;;;10.70;99.90;;;;;;5064263;28;20060;-79
2022/12/20 10:07:08;;;;;;;0.82;0.38;;;10.80;99.90;;;;;;5063990;28;20043;-78
2022/12/20 10:09:49;;;;;;;0.20;0.10;;;10.80;99.90;;;;;;5064319;28;20481;-78
2022/12/20 10:12:30;;;;;;;0.10;0.10;;;10.80;99.90;;;;;;5063925;28;20143;-79
2022/12/20 10:15:26;;;;;;;0.10;0.10;;;10.80;99.90;;;;;;5064216;28;20079;-79
2022/12/20 10:18:08;;;;;;;0.68;0.68;;;10.80;99.90;;;;;;5064154;28;20055;-79
2022/12/20 10:20:46;;;;;;;0.00;0.00;;;10.80;99.90;;;;;;5065086;28;20044;-79
2022/12/20 10:23:22;;;;;;;0.22;0.13;;;10.60;99.90;;;;;;5064056;28;20494;-79
2022/12/20 10:25:55;;;;;;;0.00;0.00;;;10.60;99.90;;;;;;5065079;28;20055;-79
2022/12/20 10:28:26;;;;;;;0.00;0.00;;;10.50;99.90;;;;;;5065182;28;20489;-79
2022/12/20 10:30:52;;;;;;;0.85;0.52;;;10.40;99.90;;;;;;5065488;28;20131;-79
2022/12/20 10:33:22;;;;;;;0.10;0.10;;;10.40;99.90;;;;;;5064758;28;20064;-79
2022/12/20 10:35:49;;;;;;;1.63;0.65;;;10.30;99.90;;;;;;5064740;28;20045;-79
2022/12/20 10:38:17;;;;;;;0.30;0.17;;;10.30;99.90;;;;;;5064634;28;20045;-79
2022/12/20 10:40:57;;;;;;;0.10;0.10;;;10.30;99.90;;;;;;5067501;28;20052;-79
2022/12/20 10:43:24;;;;;;;0.10;0.10;;;10.30;99.90;;;;;;5068181;28;20041;-79
2022/12/20 10:46:06;;;;;;;0.10;0.10;;;10.40;99.90;;;;;;5068706;28;20052;-79
2022/12/20 10:48:40;;;;;;;0.00;0.00;;;10.40;99.90;;;;;;5067191;28;20048;-79
2022/12/20 10:51:09;;;;;;;0.10;0.10;;;10.40;99.90;;;;;;5068643;28;20048;-79
2022/12/20 10:53:48;;;;;;;1.00;0.50;;;10.50;99.90;;;;;;5068419;28;20102;-79
2022/12/20 10:56:35;;;;;;;0.43;0.30;;;10.50;99.90;;;;;;5067806;28;20048;-79
2022/12/20 10:59:20;;;;;;;0.00;0.00;;;10.60;99.90;;;;;;5067730;28;20128;-79
2022/12/20 11:01:47;;;;;;;0.08;0.08;;;10.50;99.90;;;;;;5067786;28;20060;-79
2022/12/20 11:04:30;;;;;;;0.32;0.32;;;10.50;99.90;;;;;;5067529;28;20051;-79
2022/12/20 11:06:57;;;;;;;0.00;0.00;;;10.50;99.90;;;;;;5067247;28;20486;-78
2022/12/20 11:09:32;;;;;;;0.40;0.32;;;10.50;99.90;;;;;;5067473;28;20048;-78
2022/12/20 11:12:04;;;;;;;0.00;0.00;;;10.50;99.90;;;;;;5067255;28;20049;-79
2022/12/20 11:14:33;;;;;;;0.55;0.28;;;10.50;99.90;;;;;;5067426;28;20211;-79
2022/12/20 11:17:03;;;;;;;0.10;0.10;;;10.50;99.90;;;;;;5067405;28;20044;-79
2022/12/20 11:19:49;;;;;;;0.47;0.47;;;10.50;99.90;;;;;;5066736;28;20132;-79
2022/12/20 11:22:36;;;;;;;0.00;0.00;;;10.50;99.90;;;;;;5066782;28;20045;-79
2022/12/20 11:25:10;;;;;;;1.40;1.02;;;10.60;99.90;;;;;;5066001;28;20057;-78
2022/12/20 11:27:53;;;;;;;0.10;0.10;;;10.70;99.90;;;;;;5064217;28;20059;-78
2022/12/20 11:30:39;;;;;;;1.20;0.70;;;10.70;99.90;;;;;;5065161;28;20498;-78
2022/12/20 11:33:35;;;;;;;0.75;0.38;;;10.80;99.90;;;;;;5065765;28;20401;-78
2022/12/20 11:36:04;;;;;;;0.32;0.32;;;10.80;99.90;;;;;;5065673;28;20443;-78
2022/12/20 11:39:07;;;;;;;0.00;0.00;;;10.70;99.90;;;;;;5064962;28;20075;-78
2022/12/20 11:42:08;;;;;;;0.52;0.17;;;10.70;99.90;;;;;;5055612;28;20098;-78
2022/12/20 11:44:46;;;;;;;0.00;0.00;;;10.70;99.90;;;;;;5055896;28;20076;-78
2022/12/20 11:47:56;;;;;;;0.13;0.10;;;10.70;99.90;;;;;;5065653;28;20128;-78
2022/12/20 11:51:00;;;;;;;0.10;0.10;;;10.70;99.90;;;;;;5064418;28;20526;-78
2022/12/20 11:53:41;;;;;;;0.00;0.00;;;10.80;99.90;;;;;;5063756;28;20076;-78
2022/12/20 11:56:16;;;;;;;0.03;0.03;;;10.70;99.90;;;;;;5065642;28;20409;-78
2022/12/20 11:58:49;;;;;;;0.85;0.75;;;10.70;99.90;;;;;;5064044;28;20079;-78
2022/12/20 12:01:23;;;;;;;0.00;0.00;;;10.70;99.90;;;;;;5064025;28;20053;-78
2022/12/20 12:04:18;;;;;;;0.35;0.30;;;10.70;99.90;;;;;;5066362;28;20387;-78
2022/12/20 12:06:52;;;;;;;0.03;0.03;;;10.70;99.90;;;;;;5064218;28;20044;-78
2022/12/20 12:09:35;;;;;;;0.10;0.10;;;10.60;99.90;;;;;;5064982;28;20078;-78
2022/12/20 12:12:09;;;;;;;0.13;0.03;;;10.60;99.90;;;;;;5065723;28;20438;-78
2022/12/20 12:14:41;;;;;;;0.03;0.03;;;10.60;99.90;;;;;;5065881;28;20463;-78
2022/12/20 12:17:16;;;;;;;0.00;0.00;;;10.60;99.90;;;;;;5064121;28;20095;-78
2022/12/20 12:19:48;;;;;;;0.47;0.35;;;10.60;99.90;;;;;;5064701;28;20048;-79
2022/12/20 12:22:20;;;;;;;0.00;0.00;;;10.50;99.90;;;;;;5066471;28;20045;-79
2022/12/20 12:24:51;;;;;;;0.25;0.25;;;10.60;99.90;;;;;;5066069;28;20086;-79
2022/12/20 12:27:26;;;;;;;0.00;0.00;;;10.50;99.90;;;;;;5068330;28;20055;-79
2022/12/20 12:29:54;;;;;;;0.10;0.10;;;10.40;99.90;;;;;;5068353;28;20045;-80
2022/12/20 12:32:49;;;;;;;1.33;0.35;;;10.50;99.90;;;;;;5068429;28;20135;-79
2022/12/20 12:35:43;;;;;;;0.50;0.25;;;10.40;99.90;;;;;;5068960;28;20711;-79
2022/12/20 12:38:46;;;;;;;0.00;0.00;;;10.40;99.90;;;;;;5068005;28;20056;-80
2022/12/20 12:41:30;;;;;;;0.10;0.10;;;10.40;99.90;;;;;;5068721;28;20075;-80
2022/12/20 12:44:04;;;;;;;0.10;0.10;;;10.30;99.90;;;;;;5068633;28;20110;-79
2022/12/20 12:46:35;;;;;;;0.20;0.20;;;10.30;99.90;;;;;;5067141;28;20056;-79
2022/12/20 12:49:20;;;;;;;1.02;0.30;;;10.30;99.90;;;;;;5066720;28;20040;-80
2022/12/20 12:51:52;;;;;;;0.80;0.73;;;10.30;99.90;;;;;;5066433;28;20060;-79
2022/12/20 12:54:24;;;;;;;0.15;0.15;;;10.30;99.90;;;;;;5066383;28;20977;-79
2022/12/20 12:56:52;;;;;;;0.32;0.30;;;10.30;99.90;;;;;;5066231;28;20048;-80
2022/12/20 12:59:32;;;;;;;0.15;0.15;;;10.30;99.90;;;;;;5065981;28;20483;-80
2022/12/20 13:02:04;;;;;;;0.00;0.00;;;10.30;99.90;;;;;;5066137;28;20052;-79
2022/12/20 13:05:16;;;;;;;0.20;0.10;;;10.30;99.90;;;;;;5066282;28;20055;-79
2022/12/20 13:07:42;;;;;;;0.43;0.32;;;10.30;99.90;;;;;;5017713;28;20057;-79
2022/12/20 13:10:08;;;;;;;0.28;0.20;;;10.30;99.90;;;;;;5065470;28;20076;-79
2022/12/20 13:12:36;;;;;;;1.30;0.95;;;10.30;99.90;;;;;;5066415;28;20091;-80
2022/12/20 13:15:20;;;;;;;0.32;0.30;;;10.30;99.90;;;;;;5065783;28;20469;-79
2022/12/20 13:18:08;;;;;;;0.10;0.10;;;10.30;99.90;;;;;;5067643;28;20092;-80
2022/12/20 13:20:35;;;;;;;0.47;0.45;;;10.30;99.90;;;;;;5068002;28;20409;-80
2022/12/20 13:23:07;;;;;;;0.03;0.03;;;10.30;99.90;;;;;;5049643;28;20106;-79